sensor_id;sensor_type;location;lat;lon;timestamp;pressure;altitude;pressure_sealevel;temperature;humidity
39793;BME280;26080;42.264;24.536;2023-04-10T00:01:01;99505.34;;;9.14;100.00
39793;BME280;26080;42.264;24.536;2023-04-10T00:03:27;99503.75;;;9.10;100.00
39793;BME280;26080;42.264;24.536;2023-04-10T00:05:53;99503.69;;;8.88;100.00
39793;BME280;26080;42.264;24.536;2023-04-10T00:08:22;99502.56;;;8.72;100.00
39793;BME280;26080;42.264;24.536;2023-04-10T00:10:47;99502.75;;;8.68;100.00
39793;BME280;26080;42.264;24.536;2023-04-10T00:13:14;99498.69;;;8.59;100.00
39793;BME280;26080;42.264;24.536;2023-04-10T00:15:40;99502.28;;;8.56;100.00
39793;BME280;26080;42.264;24.536;2023-04-10T00:18:05;99491.22;;;8.50;100.00
39793;BME280;26080;42.264;24.536;2023-04-10T00:20:30;99490.13;;;8.55;100.00
39793;BME280;26080;42.264;24.536;2023-04-10T00:22:56;99466.75;;;8.27;100.00
39793;BME280;26080;42.264;24.536;2023-04-10T00:25:21;99452.69;;;8.07;100.00
39793;BME280;26080;42.264;24.536;2023-04-10T00:27:47;99465.81;;;8.03;100.00
39793;BME280;26080;42.264;24.536;2023-04-10T00:30:13;99491.00;;;8.05;100.00
39793;BME280;26080;42.264;24.536;2023-04-10T00:32:38;99495.59;;;7.98;100.00
39793;BME280;26080;42.264;24.536;2023-04-10T00:35:05;99487.88;;;7.95;100.00
39793;BME280;26080;42.264;24.536;2023-04-10T00:37:31;99476.78;;;7.88;100.00
39793;BME280;26080;42.264;24.536;2023-04-10T00:39:56;99479.97;;;7.71;100.00
39793;BME280;26080;42.264;24.536;2023-04-10T00:42:22;99475.88;;;7.63;100.00
39793;BME280;26080;42.264;24.536;2023-04-10T00:44:47;99481.50;;;7.51;100.00
39793;BME280;26080;42.264;24.536;2023-04-10T00:47:13;99479.38;;;7.35;100.00
39793;BME280;26080;42.264;24.536;2023-04-10T00:49:39;99477.13;;;7.23;100.00
39793;BME280;26080;42.264;24.536;2023-04-10T00:52:06;99455.97;;;7.06;100.00
39793;BME280;26080;42.264;24.536;2023-04-10T00:54:32;99476.59;;;7.13;100.00
39793;BME280;26080;42.264;24.536;2023-04-10T00:56:58;99471.19;;;7.20;100.00
39793;BME280;26080;42.264;24.536;2023-04-10T00:59:25;99453.47;;;7.03;100.00
39793;BME280;26080;42.264;24.536;2023-04-10T01:01:50;99462.09;;;7.05;100.00
39793;BME280;26080;42.264;24.536;2023-04-10T01:04:16;99465.59;;;7.04;100.00
39793;BME280;26080;42.264;24.536;2023-04-10T01:07:13;99468.63;;;6.90;100.00
39793;BME280;26080;42.264;24.536;2023-04-10T01:09:57;99462.59;;;6.88;100.00
39793;BME280;26080;42.264;24.536;2023-04-10T01:12:42;99452.50;;;6.77;100.00
39793;BME280;26080;42.264;24.536;2023-04-10T01:15:12;99457.81;;;6.74;100.00
39793;BME280;26080;42.264;24.536;2023-04-10T01:17:56;99451.94;;;6.66;100.00
39793;BME280;26080;42.264;24.536;2023-04-10T01:20:26;99450.41;;;6.61;100.00
39793;BME280;26080;42.264;24.536;2023-04-10T01:30:46;99449.13;;;6.44;100.00
39793;BME280;26080;42.264;24.536;2023-04-10T01:33:15;99444.78;;;6.45;100.00
39793;BME280;26080;42.264;24.536;2023-04-10T01:35:43;99445.75;;;6.41;100.00
39793;BME280;26080;42.264;24.536;2023-04-10T01:38:14;99433.00;;;6.32;100.00
39793;BME280;26080;42.264;24.536;2023-04-10T01:40:43;99428.09;;;6.21;100.00
39793;BME280;26080;42.264;24.536;2023-04-10T01:43:15;99458.66;;;6.44;100.00
39793;BME280;26080;42.264;24.536;2023-04-10T01:45:41;99462.84;;;6.49;100.00
39793;BME280;26080;42.264;24.536;2023-04-10T01:48:08;99455.84;;;6.20;100.00
39793;BME280;26080;42.264;24.536;2023-04-10T01:50:34;99459.50;;;6.13;100.00
39793;BME280;26080;42.264;24.536;2023-04-10T01:53:02;99454.72;;;6.29;100.00
39793;BME280;26080;42.264;24.536;2023-04-10T01:55:30;99425.78;;;6.10;100.00
39793;BME280;26080;42.264;24.536;2023-04-10T01:57:56;99452.91;;;6.00;100.00
39793;BME280;26080;42.264;24.536;2023-04-10T02:00:22;99450.72;;;5.83;100.00
39793;BME280;26080;42.264;24.536;2023-04-10T02:02:48;99450.94;;;5.74;100.00
39793;BME280;26080;42.264;24.536;2023-04-10T02:05:15;99452.06;;;5.65;100.00
39793;BME280;26080;42.264;24.536;2023-04-10T02:13:14;99444.84;;;5.77;100.00
39793;BME280;26080;42.264;24.536;2023-04-10T02:15:45;99445.56;;;5.82;100.00
39793;BME280;26080;42.264;24.536;2023-04-10T02:18:14;99442.81;;;5.88;100.00
39793;BME280;26080;42.264;24.536;2023-04-10T02:20:41;99445.69;;;5.77;100.00
39793;BME280;26080;42.264;24.536;2023-04-10T02:23:06;99448.44;;;5.71;100.00
39793;BME280;26080;42.264;24.536;2023-04-10T02:25:32;99453.69;;;5.70;100.00
39793;BME280;26080;42.264;24.536;2023-04-10T02:28:02;99439.09;;;5.64;100.00
39793;BME280;26080;42.264;24.536;2023-04-10T02:30:28;99443.59;;;5.57;100.00
39793;BME280;26080;42.264;24.536;2023-04-10T02:32:53;99443.75;;;5.51;100.00
39793;BME280;26080;42.264;24.536;2023-04-10T02:35:19;99434.34;;;5.46;100.00
39793;BME280;26080;42.264;24.536;2023-04-10T02:37:45;99431.72;;;5.47;100.00
39793;BME280;26080;42.264;24.536;2023-04-10T02:40:11;99424.66;;;5.52;100.00
39793;BME280;26080;42.264;24.536;2023-04-10T02:42:36;99423.00;;;5.50;100.00
39793;BME280;26080;42.264;24.536;2023-04-10T02:45:02;99420.28;;;5.54;100.00
39793;BME280;26080;42.264;24.536;2023-04-10T02:47:28;99424.59;;;5.55;100.00
39793;BME280;26080;42.264;24.536;2023-04-10T02:49:54;99422.06;;;5.52;100.00
39793;BME280;26080;42.264;24.536;2023-04-10T02:52:20;99416.97;;;5.49;100.00
39793;BME280;26080;42.264;24.536;2023-04-10T02:54:45;99390.41;;;5.38;100.00
39793;BME280;26080;42.264;24.536;2023-04-10T02:57:11;99422.88;;;5.54;100.00
39793;BME280;26080;42.264;24.536;2023-04-10T02:59:36;99416.63;;;5.63;100.00
39793;BME280;26080;42.264;24.536;2023-04-10T03:02:02;99418.25;;;5.67;100.00
39793;BME280;26080;42.264;24.536;2023-04-10T03:04:30;99380.72;;;5.43;100.00
39793;BME280;26080;42.264;24.536;2023-04-10T03:06:56;99415.59;;;5.69;100.00
39793;BME280;26080;42.264;24.536;2023-04-10T03:09:22;99417.28;;;5.70;100.00
39793;BME280;26080;42.264;24.536;2023-04-10T03:11:47;99389.69;;;5.65;100.00
39793;BME280;26080;42.264;24.536;2023-04-10T03:14:12;99406.31;;;5.94;100.00
39793;BME280;26080;42.264;24.536;2023-04-10T03:16:38;99418.97;;;6.06;100.00
39793;BME280;26080;42.264;24.536;2023-04-10T03:19:03;99423.19;;;6.10;100.00
39793;BME280;26080;42.264;24.536;2023-04-10T03:21:29;99426.81;;;6.05;100.00
39793;BME280;26080;42.264;24.536;2023-04-10T03:23:54;99415.63;;;6.01;100.00
39793;BME280;26080;42.264;24.536;2023-04-10T03:26:20;99424.38;;;5.99;100.00
39793;BME280;26080;42.264;24.536;2023-04-10T03:28:48;99424.94;;;6.10;100.00
39793;BME280;26080;42.264;24.536;2023-04-10T03:31:14;99421.94;;;6.23;100.00
39793;BME280;26080;42.264;24.536;2023-04-10T03:33:39;99402.28;;;6.13;100.00
39793;BME280;26080;42.264;24.536;2023-04-10T03:36:05;99428.06;;;6.22;100.00
39793;BME280;26080;42.264;24.536;2023-04-10T03:38:31;99396.38;;;6.08;100.00
39793;BME280;26080;42.264;24.536;2023-04-10T03:40:57;99429.41;;;6.36;100.00
39793;BME280;26080;42.264;24.536;2023-04-10T03:43:23;99427.81;;;6.30;100.00
39793;BME280;26080;42.264;24.536;2023-04-10T03:45:49;99413.63;;;6.11;100.00
39793;BME280;26080;42.264;24.536;2023-04-10T03:48:19;99440.97;;;6.26;100.00
39793;BME280;26080;42.264;24.536;2023-04-10T03:50:47;99437.75;;;6.17;100.00
39793;BME280;26080;42.264;24.536;2023-04-10T03:53:13;99433.25;;;6.22;100.00
39793;BME280;26080;42.264;24.536;2023-04-10T03:55:41;99439.53;;;6.14;100.00
39793;BME280;26080;42.264;24.536;2023-04-10T03:58:06;99445.78;;;6.08;100.00
39793;BME280;26080;42.264;24.536;2023-04-10T04:00:32;99438.13;;;6.02;100.00
39793;BME280;26080;42.264;24.536;2023-04-10T04:02:57;99441.88;;;5.92;100.00
39793;BME280;26080;42.264;24.536;2023-04-10T04:05:25;99418.81;;;5.78;100.00
39793;BME280;26080;42.264;24.536;2023-04-10T04:07:51;99436.47;;;6.00;100.00
39793;BME280;26080;42.264;24.536;2023-04-10T04:10:16;99424.41;;;5.97;100.00
39793;BME280;26080;42.264;24.536;2023-04-10T04:12:41;99432.88;;;6.05;100.00
39793;BME280;26080;42.264;24.536;2023-04-10T04:15:07;99447.97;;;6.23;100.00
39793;BME280;26080;42.264;24.536;2023-04-10T04:17:33;99445.13;;;6.33;100.00
39793;BME280;26080;42.264;24.536;2023-04-10T04:19:58;99436.75;;;6.21;100.00
39793;BME280;26080;42.264;24.536;2023-04-10T04:22:24;99432.69;;;6.11;100.00
39793;BME280;26080;42.264;24.536;2023-04-10T04:24:49;99429.00;;;6.20;100.00
39793;BME280;26080;42.264;24.536;2023-04-10T04:27:15;99428.06;;;6.22;100.00
39793;BME280;26080;42.264;24.536;2023-04-10T04:29:40;99424.31;;;6.33;100.00
39793;BME280;26080;42.264;24.536;2023-04-10T04:32:06;99412.78;;;6.41;100.00
39793;BME280;26080;42.264;24.536;2023-04-10T04:34:31;99427.28;;;6.50;100.00
39793;BME280;26080;42.264;24.536;2023-04-10T04:36:56;99427.03;;;6.58;100.00
39793;BME280;26080;42.264;24.536;2023-04-10T04:39:22;99430.06;;;6.73;100.00
39793;BME280;26080;42.264;24.536;2023-04-10T04:41:47;99436.31;;;6.96;100.00
39793;BME280;26080;42.264;24.536;2023-04-10T04:44:13;99413.50;;;7.04;100.00
39793;BME280;26080;42.264;24.536;2023-04-10T04:46:38;99438.59;;;7.34;100.00
39793;BME280;26080;42.264;24.536;2023-04-10T04:49:03;99445.00;;;7.51;100.00
39793;BME280;26080;42.264;24.536;2023-04-10T04:51:29;99448.97;;;7.62;100.00
39793;BME280;26080;42.264;24.536;2023-04-10T04:53:55;99438.75;;;7.83;100.00
39793;BME280;26080;42.264;24.536;2023-04-10T04:56:20;99440.13;;;7.93;100.00
39793;BME280;26080;42.264;24.536;2023-04-10T04:58:46;99432.53;;;8.12;100.00
39793;BME280;26080;42.264;24.536;2023-04-10T05:01:11;99443.00;;;8.35;100.00
39793;BME280;26080;42.264;24.536;2023-04-10T05:03:37;99440.25;;;8.40;100.00
39793;BME280;26080;42.264;24.536;2023-04-10T05:06:03;99448.75;;;8.45;100.00
39793;BME280;26080;42.264;24.536;2023-04-10T05:08:28;99444.22;;;8.50;100.00
39793;BME280;26080;42.264;24.536;2023-04-10T05:10:53;99448.66;;;8.71;100.00
39793;BME280;26080;42.264;24.536;2023-04-10T05:13:19;99443.53;;;8.68;100.00
39793;BME280;26080;42.264;24.536;2023-04-10T05:15:45;99446.09;;;8.70;100.00
39793;BME280;26080;42.264;24.536;2023-04-10T05:18:11;99444.41;;;8.69;100.00
39793;BME280;26080;42.264;24.536;2023-04-10T05:20:38;99451.41;;;8.90;100.00
39793;BME280;26080;42.264;24.536;2023-04-10T05:23:03;99450.72;;;9.08;100.00
39793;BME280;26080;42.264;24.536;2023-04-10T05:25:29;99449.94;;;9.06;100.00
39793;BME280;26080;42.264;24.536;2023-04-10T05:27:55;99457.22;;;9.20;100.00
39793;BME280;26080;42.264;24.536;2023-04-10T05:30:20;99449.06;;;9.28;100.00
39793;BME280;26080;42.264;24.536;2023-04-10T05:32:46;99450.28;;;9.41;100.00
39793;BME280;26080;42.264;24.536;2023-04-10T05:35:12;99460.41;;;9.70;100.00
39793;BME280;26080;42.264;24.536;2023-04-10T05:37:39;99459.13;;;9.80;100.00
39793;BME280;26080;42.264;24.536;2023-04-10T05:40:05;99460.03;;;9.79;100.00
39793;BME280;26080;42.264;24.536;2023-04-10T05:42:30;99458.13;;;9.83;100.00
39793;BME280;26080;42.264;24.536;2023-04-10T05:44:56;99459.41;;;9.95;100.00
39793;BME280;26080;42.264;24.536;2023-04-10T05:47:21;99456.97;;;9.90;100.00
39793;BME280;26080;42.264;24.536;2023-04-10T05:49:47;99458.22;;;9.82;100.00
39793;BME280;26080;42.264;24.536;2023-04-10T05:52:12;99442.50;;;9.82;100.00
39793;BME280;26080;42.264;24.536;2023-04-10T05:54:38;99458.44;;;10.18;100.00
39793;BME280;26080;42.264;24.536;2023-04-10T05:57:03;99465.97;;;10.46;100.00
39793;BME280;26080;42.264;24.536;2023-04-10T05:59:29;99466.91;;;10.63;100.00
39793;BME280;26080;42.264;24.536;2023-04-10T06:01:56;99465.06;;;10.65;100.00
39793;BME280;26080;42.264;24.536;2023-04-10T06:04:21;99461.09;;;10.57;100.00
39793;BME280;26080;42.264;24.536;2023-04-10T06:06:47;99463.59;;;10.39;100.00
39793;BME280;26080;42.264;24.536;2023-04-10T06:09:13;99456.94;;;10.32;100.00
39793;BME280;26080;42.264;24.536;2023-04-10T06:11:38;99456.72;;;10.37;100.00
39793;BME280;26080;42.264;24.536;2023-04-10T06:14:03;99463.25;;;10.28;100.00
39793;BME280;26080;42.264;24.536;2023-04-10T06:16:29;99461.34;;;10.51;99.98
39793;BME280;26080;42.264;24.536;2023-04-10T06:18:55;99464.22;;;10.65;98.31
39793;BME280;26080;42.264;24.536;2023-04-10T06:21:21;99459.13;;;10.81;97.84
39793;BME280;26080;42.264;24.536;2023-04-10T06:23:46;99442.56;;;10.80;95.73
39793;BME280;26080;42.264;24.536;2023-04-10T06:26:12;99455.03;;;11.13;95.04
39793;BME280;26080;42.264;24.536;2023-04-10T06:28:37;99457.34;;;11.38;90.79
39793;BME280;26080;42.264;24.536;2023-04-10T06:31:05;99461.50;;;11.42;91.59
39793;BME280;26080;42.264;24.536;2023-04-10T06:33:31;99452.59;;;11.27;92.38
39793;BME280;26080;42.264;24.536;2023-04-10T06:36:00;99455.09;;;11.11;92.05
39793;BME280;26080;42.264;24.536;2023-04-10T06:38:25;99454.31;;;11.09;90.00
39793;BME280;26080;42.264;24.536;2023-04-10T06:40:51;99450.84;;;11.09;90.35
39793;BME280;26080;42.264;24.536;2023-04-10T06:43:16;99459.53;;;11.09;89.59
39793;BME280;26080;42.264;24.536;2023-04-10T06:45:42;99459.28;;;11.15;88.82
39793;BME280;26080;42.264;24.536;2023-04-10T06:48:07;99453.44;;;11.09;88.42
39793;BME280;26080;42.264;24.536;2023-04-10T06:50:33;99444.41;;;11.16;90.10
39793;BME280;26080;42.264;24.536;2023-04-10T06:52:58;99454.91;;;11.33;89.51
39793;BME280;26080;42.264;24.536;2023-04-10T06:55:25;99460.50;;;11.44;88.45
39793;BME280;26080;42.264;24.536;2023-04-10T06:57:50;99464.31;;;11.56;88.09
39793;BME280;26080;42.264;24.536;2023-04-10T07:00:18;99459.16;;;11.72;83.97
39793;BME280;26080;42.264;24.536;2023-04-10T07:02:43;99453.56;;;11.97;78.08
39793;BME280;26080;42.264;24.536;2023-04-10T07:05:10;99448.72;;;12.06;73.44
39793;BME280;26080;42.264;24.536;2023-04-10T07:07:35;99447.47;;;12.13;73.90
39793;BME280;26080;42.264;24.536;2023-04-10T07:10:01;99444.50;;;12.37;76.90
39793;BME280;26080;42.264;24.536;2023-04-10T07:12:28;99445.25;;;12.39;74.26
39793;BME280;26080;42.264;24.536;2023-04-10T07:14:53;99445.56;;;12.33;75.60
39793;BME280;26080;42.264;24.536;2023-04-10T07:17:20;99443.06;;;12.47;75.56
39793;BME280;26080;42.264;24.536;2023-04-10T07:19:45;99435.47;;;12.58;72.83
39793;BME280;26080;42.264;24.536;2023-04-10T07:22:10;99437.22;;;12.91;73.18
39793;BME280;26080;42.264;24.536;2023-04-10T07:24:36;99436.38;;;13.06;70.71
39793;BME280;26080;42.264;24.536;2023-04-10T07:27:02;99422.81;;;12.98;69.84
39793;BME280;26080;42.264;24.536;2023-04-10T07:29:28;99437.91;;;12.94;70.98
39793;BME280;26080;42.264;24.536;2023-04-10T07:31:54;99405.00;;;13.03;73.90
39793;BME280;26080;42.264;24.536;2023-04-10T07:34:19;99423.34;;;13.20;74.01
39793;BME280;26080;42.264;24.536;2023-04-10T07:36:45;99434.50;;;13.40;71.05
39793;BME280;26080;42.264;24.536;2023-04-10T07:39:11;99432.81;;;13.39;71.98
39793;BME280;26080;42.264;24.536;2023-04-10T07:41:36;99435.13;;;13.45;71.56
39793;BME280;26080;42.264;24.536;2023-04-10T07:44:02;99415.28;;;13.69;74.07
39793;BME280;26080;42.264;24.536;2023-04-10T07:46:29;99403.41;;;13.62;69.08
39793;BME280;26080;42.264;24.536;2023-04-10T07:48:54;99423.41;;;13.80;69.49
39793;BME280;26080;42.264;24.536;2023-04-10T07:51:20;99419.06;;;13.79;69.24
39793;BME280;26080;42.264;24.536;2023-04-10T07:53:45;99419.38;;;13.89;70.79
39793;BME280;26080;42.264;24.536;2023-04-10T07:56:15;99423.00;;;14.02;70.41
39793;BME280;26080;42.264;24.536;2023-04-10T07:58:41;99421.56;;;14.11;73.71
39793;BME280;26080;42.264;24.536;2023-04-10T08:01:07;99418.59;;;14.17;70.43
39793;BME280;26080;42.264;24.536;2023-04-10T08:03:45;99418.09;;;14.10;66.16
39793;BME280;26080;42.264;24.536;2023-04-10T08:06:11;99418.22;;;14.23;65.01
39793;BME280;26080;42.264;24.536;2023-04-10T08:08:38;99400.81;;;14.20;64.86
39793;BME280;26080;42.264;24.536;2023-04-10T08:11:06;99411.66;;;14.30;68.80
39793;BME280;26080;42.264;24.536;2023-04-10T08:13:32;99404.03;;;14.26;70.81
39793;BME280;26080;42.264;24.536;2023-04-10T08:15:58;99409.31;;;14.26;70.80
39793;BME280;26080;42.264;24.536;2023-04-10T08:18:24;99395.34;;;14.23;73.49
39793;BME280;26080;42.264;24.536;2023-04-10T08:20:49;99411.84;;;14.27;69.87
39793;BME280;26080;42.264;24.536;2023-04-10T08:23:15;99408.81;;;14.19;69.70
39793;BME280;26080;42.264;24.536;2023-04-10T08:25:40;99409.91;;;14.01;70.71
39793;BME280;26080;42.264;24.536;2023-04-10T08:28:05;99405.78;;;14.11;71.19
39793;BME280;26080;42.264;24.536;2023-04-10T08:30:31;99393.09;;;14.03;68.51
39793;BME280;26080;42.264;24.536;2023-04-10T08:32:56;99410.31;;;14.23;71.34
39793;BME280;26080;42.264;24.536;2023-04-10T08:35:22;99410.34;;;14.51;69.04
39793;BME280;26080;42.264;24.536;2023-04-10T08:37:48;99403.03;;;14.57;67.77
39793;BME280;26080;42.264;24.536;2023-04-10T08:40:13;99399.34;;;14.45;65.92
39793;BME280;26080;42.264;24.536;2023-04-10T08:42:39;99399.25;;;14.61;66.91
39793;BME280;26080;42.264;24.536;2023-04-10T08:45:05;99399.16;;;14.48;67.91
39793;BME280;26080;42.264;24.536;2023-04-10T08:47:35;99395.69;;;14.47;70.61
39793;BME280;26080;42.264;24.536;2023-04-10T08:50:05;99396.03;;;14.84;70.34
39793;BME280;26080;42.264;24.536;2023-04-10T08:52:33;99392.38;;;15.14;66.96
39793;BME280;26080;42.264;24.536;2023-04-10T08:55:04;99378.19;;;15.29;64.89
39793;BME280;26080;42.264;24.536;2023-04-10T08:57:32;99380.34;;;15.36;66.85
39793;BME280;26080;42.264;24.536;2023-04-10T08:59:58;99383.75;;;15.51;66.10
39793;BME280;26080;42.264;24.536;2023-04-10T09:02:23;99377.75;;;15.62;63.57
39793;BME280;26080;42.264;24.536;2023-04-10T09:04:50;99370.72;;;15.88;62.14
39793;BME280;26080;42.264;24.536;2023-04-10T09:07:16;99368.84;;;16.15;56.68
39793;BME280;26080;42.264;24.536;2023-04-10T09:09:42;99358.50;;;16.12;59.71
39793;BME280;26080;42.264;24.536;2023-04-10T09:12:07;99366.63;;;16.09;58.59
39793;BME280;26080;42.264;24.536;2023-04-10T09:14:34;99363.44;;;16.29;61.17
39793;BME280;26080;42.264;24.536;2023-04-10T09:19:37;99356.69;;;16.25;57.94
39793;BME280;26080;42.264;24.536;2023-04-10T09:22:03;99355.22;;;15.83;61.29
39793;BME280;26080;42.264;24.536;2023-04-10T09:24:29;99347.91;;;15.74;65.38
39793;BME280;26080;42.264;24.536;2023-04-10T09:26:54;99349.94;;;15.83;62.69
39793;BME280;26080;42.264;24.536;2023-04-10T09:29:20;99347.28;;;15.70;60.23
39793;BME280;26080;42.264;24.536;2023-04-10T09:31:46;99353.06;;;15.76;63.95
39793;BME280;26080;42.264;24.536;2023-04-10T09:34:19;99349.09;;;15.83;59.60
39793;BME280;26080;42.264;24.536;2023-04-10T09:36:55;99345.41;;;15.46;56.15
39793;BME280;26080;42.264;24.536;2023-04-10T09:39:21;99345.56;;;15.30;57.28
39793;BME280;26080;42.264;24.536;2023-04-10T09:41:51;99347.28;;;15.04;58.70
39793;BME280;26080;42.264;24.536;2023-04-10T09:44:27;99345.31;;;14.93;59.01
39793;BME280;26080;42.264;24.536;2023-04-10T09:46:53;99346.00;;;14.56;59.15
39793;BME280;26080;42.264;24.536;2023-04-10T09:49:19;99341.25;;;14.32;60.64
39793;BME280;26080;42.264;24.536;2023-04-10T09:51:44;99327.44;;;14.14;60.71
39793;BME280;26080;42.264;24.536;2023-04-10T09:54:11;99339.94;;;14.25;59.90
39793;BME280;26080;42.264;24.536;2023-04-10T09:56:43;99332.72;;;14.29;61.62
39793;BME280;26080;42.264;24.536;2023-04-10T09:59:09;99332.81;;;14.27;60.28
39793;BME280;26080;42.264;24.536;2023-04-10T10:01:36;99329.47;;;14.38;60.76
39793;BME280;26080;42.264;24.536;2023-04-10T10:04:04;99320.75;;;14.51;60.36
39793;BME280;26080;42.264;24.536;2023-04-10T10:06:39;99330.53;;;14.49;60.46
39793;BME280;26080;42.264;24.536;2023-04-10T10:09:05;99324.91;;;14.56;60.85
39793;BME280;26080;42.264;24.536;2023-04-10T10:11:34;99325.16;;;14.51;61.34
39793;BME280;26080;42.264;24.536;2023-04-10T10:14:08;99317.56;;;14.46;61.89
39793;BME280;26080;42.264;24.536;2023-04-10T10:16:42;99322.00;;;14.46;61.13
39793;BME280;26080;42.264;24.536;2023-04-10T10:19:30;99316.78;;;14.59;62.11
39793;BME280;26080;42.264;24.536;2023-04-10T10:21:59;99318.78;;;14.41;62.09
39793;BME280;26080;42.264;24.536;2023-04-10T10:24:27;99315.69;;;14.20;71.45
39793;BME280;26080;42.264;24.536;2023-04-10T10:26:54;99318.31;;;13.91;69.30
39793;BME280;26080;42.264;24.536;2023-04-10T10:29:23;99312.91;;;13.64;70.48
39793;BME280;26080;42.264;24.536;2023-04-10T10:31:48;99319.75;;;13.53;72.11
39793;BME280;26080;42.264;24.536;2023-04-10T10:34:14;99322.13;;;13.12;76.19
39793;BME280;26080;42.264;24.536;2023-04-10T10:36:40;99319.69;;;12.93;77.30
39793;BME280;26080;42.264;24.536;2023-04-10T10:40:00;99319.53;;;12.80;78.92
39793;BME280;26080;42.264;24.536;2023-04-10T10:42:41;99329.03;;;12.67;82.89
39793;BME280;26080;42.264;24.536;2023-04-10T10:45:16;99328.28;;;12.65;84.27
39793;BME280;26080;42.264;24.536;2023-04-10T10:47:50;99328.03;;;12.69;83.29
39793;BME280;26080;42.264;24.536;2023-04-10T10:50:16;99330.47;;;12.72;80.29
39793;BME280;26080;42.264;24.536;2023-04-10T10:52:49;99322.59;;;12.72;81.68
39793;BME280;26080;42.264;24.536;2023-04-10T11:06:03;99329.03;;;12.67;87.99
39793;BME280;26080;42.264;24.536;2023-04-10T11:08:36;99325.66;;;12.49;86.39
39793;BME280;26080;42.264;24.536;2023-04-10T11:11:20;99326.41;;;12.51;83.26
39793;BME280;26080;42.264;24.536;2023-04-10T11:16:22;99325.97;;;12.27;94.89
39793;BME280;26080;42.264;24.536;2023-04-10T11:21:14;99332.28;;;12.07;100.00
39793;BME280;26080;42.264;24.536;2023-04-10T11:31:54;99314.44;;;11.81;100.00
39793;BME280;26080;42.264;24.536;2023-04-10T11:34:20;99332.28;;;11.90;100.00
39793;BME280;26080;42.264;24.536;2023-04-10T11:36:46;99328.81;;;11.90;100.00
39793;BME280;26080;42.264;24.536;2023-04-10T11:39:13;99335.84;;;11.89;100.00
39793;BME280;26080;42.264;24.536;2023-04-10T11:41:50;99330.09;;;11.82;100.00
39793;BME280;26080;42.264;24.536;2023-04-10T11:44:30;99335.75;;;11.91;100.00
39793;BME280;26080;42.264;24.536;2023-04-10T11:46:56;99335.50;;;11.79;100.00
39793;BME280;26080;42.264;24.536;2023-04-10T11:49:28;99334.41;;;11.83;100.00
39793;BME280;26080;42.264;24.536;2023-04-10T11:51:54;99328.44;;;11.97;100.00
39793;BME280;26080;42.264;24.536;2023-04-10T11:54:22;99327.44;;;12.15;100.00
39793;BME280;26080;42.264;24.536;2023-04-10T11:57:07;99330.34;;;12.27;100.00
39793;BME280;26080;42.264;24.536;2023-04-10T11:59:34;99313.09;;;12.23;100.00
39793;BME280;26080;42.264;24.536;2023-04-10T12:02:11;99321.38;;;12.46;100.00
39793;BME280;26080;42.264;24.536;2023-04-10T12:04:41;99319.59;;;12.47;100.00
39793;BME280;26080;42.264;24.536;2023-04-10T12:07:08;99322.09;;;12.66;100.00
39793;BME280;26080;42.264;24.536;2023-04-10T12:09:33;99308.19;;;12.80;100.00
39793;BME280;26080;42.264;24.536;2023-04-10T12:12:04;99306.63;;;13.07;100.00
39793;BME280;26080;42.264;24.536;2023-04-10T12:14:35;99303.19;;;13.37;100.00
39793;BME280;26080;42.264;24.536;2023-04-10T12:17:02;99301.81;;;13.45;100.00
39793;BME280;26080;42.264;24.536;2023-04-10T12:19:28;99297.63;;;13.71;100.00
39793;BME280;26080;42.264;24.536;2023-04-10T12:21:54;99286.06;;;13.88;97.35
39793;BME280;26080;42.264;24.536;2023-04-10T12:24:50;99285.03;;;13.76;99.90
39793;BME280;26080;42.264;24.536;2023-04-10T12:27:23;99281.84;;;13.71;98.73
39793;BME280;26080;42.264;24.536;2023-04-10T12:29:52;99280.50;;;13.64;98.35
39793;BME280;26080;42.264;24.536;2023-04-10T12:32:18;99279.72;;;13.48;93.48
39793;BME280;26080;42.264;24.536;2023-04-10T12:34:52;99276.91;;;13.51;99.11
39793;BME280;26080;42.264;24.536;2023-04-10T12:37:21;99252.88;;;13.57;99.00
39793;BME280;26080;42.264;24.536;2023-04-10T12:39:47;99272.59;;;13.78;93.33
39793;BME280;26080;42.264;24.536;2023-04-10T12:42:22;99280.91;;;13.86;95.12
39793;BME280;26080;42.264;24.536;2023-04-10T12:44:57;99272.81;;;14.04;95.30
39793;BME280;26080;42.264;24.536;2023-04-10T12:47:24;99265.09;;;14.15;90.79
39793;BME280;26080;42.264;24.536;2023-04-10T12:52:28;99260.69;;;14.01;88.98
39793;BME280;26080;42.264;24.536;2023-04-10T12:54:54;99250.25;;;13.85;94.43
39793;BME280;26080;42.264;24.536;2023-04-10T12:57:26;99217.97;;;13.82;92.40
39793;BME280;26080;42.264;24.536;2023-04-10T12:59:51;99246.56;;;14.02;88.21
39793;BME280;26080;42.264;24.536;2023-04-10T13:02:17;99240.28;;;13.90;89.96
39793;BME280;26080;42.264;24.536;2023-04-10T13:04:45;99247.97;;;13.93;89.29
39793;BME280;26080;42.264;24.536;2023-04-10T13:07:10;99252.47;;;14.06;90.14
39793;BME280;26080;42.264;24.536;2023-04-10T13:09:36;99239.72;;;14.00;84.88
39793;BME280;26080;42.264;24.536;2023-04-10T13:12:02;99234.13;;;14.18;86.60
39793;BME280;26080;42.264;24.536;2023-04-10T13:14:28;99233.78;;;14.37;88.24
39793;BME280;26080;42.264;24.536;2023-04-10T13:16:53;99234.28;;;14.44;84.63
39793;BME280;26080;42.264;24.536;2023-04-10T13:19:19;99231.84;;;14.41;83.55
39793;BME280;26080;42.264;24.536;2023-04-10T13:21:44;99228.34;;;14.55;81.54
39793;BME280;26080;42.264;24.536;2023-04-10T13:24:10;99219.81;;;14.64;83.76
39793;BME280;26080;42.264;24.536;2023-04-10T13:26:35;99206.69;;;14.76;82.79
39793;BME280;26080;42.264;24.536;2023-04-10T13:29:01;99217.81;;;14.94;82.03
39793;BME280;26080;42.264;24.536;2023-04-10T13:31:26;99207.78;;;14.87;86.02
39793;BME280;26080;42.264;24.536;2023-04-10T13:33:52;99203.41;;;14.73;82.93